Aeroporto :
LOGIN :

Iscrizione | Disclaimer

   EN    FR    IT 

 










Sommario :    VFR   VFR Marginale   IFR   IFR Intensivo   IFR Molto Intensivo
Visibilità : 
Base nubi : 
>= 8 km
>= 3000ft
5 / 8 km
1000 / 3000 ft
1500m / 5 km
500 / 1000 ft
800 / 1500m
200 / 500 ft
< 800m
< 200 ft
Simboli :   Temporali  Nebbia  Neve Forte  Precipitazioni Forti  Vento > 20 kt
SIGMETs :   Varie  Temporali  Ghiacco  Turbolenza  Onda orograficha  Ceneri Vulcaniche






- Altitudine del aeroporto : 650 ft
- Codice IATA : ZJI


LSZL - Locarno

ULTIMO METAR :
  • 242220Z AUTO VRB02KT 9999NDV FEW089 BKN110 02/M01 Q1026 RMK

METARs OBSOLETI :
  • 242150Z AUTO 00000KT 9999NDV BKN100 03/M00 Q1026 RMK
  • 242120Z AUTO 00000KT 9999NDV SCT100 SCT120 02/M02 Q1027 RMK
  • 242050Z AUTO 30001KT 9999NDV BKN100 BKN130 03/M02 Q1026 RMK
  • 241950Z AUTO 00000KT 9999NDV BKN120 03/M02 Q1026 RMK

TAF TAF LSZL
Valido dal 24 a 18 ore il 25 a 03 ore UTC


241725Z 2418/2503 VRB03KT 9999 SCT090



MetMap, La meteo Aeronautica in un colpo d'occhio ! - Copyright ORBIFLY Dicembre 2007 - Disclaimer

ORBIFLY MET'MAP TEAM :

Programmazione e sviluppo : Alexandra Zaïnal
Concezione : Baudouin d'Aumeries
Aiuto per la programmazione : Marc-Olivier Méhu
Supporto tecnico e logistico : Manuel Goepfert
Aiuto per la traduzione : Arnaldo La Scala

Contatto : metmap@orbifly.com




FONTI E CREDITI :

   NOAA